sensor_id;sensor_type;location;lat;lon;timestamp;P1;durP1;ratioP1;P2;durP2;ratioP2
1460;SDS011;724;49.910;12.530;2023-06-22T00:02:16;6.20;;;5.90;;
1460;SDS011;724;49.910;12.530;2023-06-22T00:04:43;5.90;;;5.60;;
1460;SDS011;724;49.910;12.530;2023-06-22T00:07:10;5.20;;;4.90;;
1460;SDS011;724;49.910;12.530;2023-06-22T00:09:37;5.60;;;5.30;;
1460;SDS011;724;49.910;12.530;2023-06-22T00:12:04;6.00;;;5.70;;
1460;SDS011;724;49.910;12.530;2023-06-22T00:14:33;6.10;;;5.80;;
1460;SDS011;724;49.910;12.530;2023-06-22T00:16:59;6.20;;;5.90;;
1460;SDS011;724;49.910;12.530;2023-06-22T00:19:26;6.60;;;6.20;;
1460;SDS011;724;49.910;12.530;2023-06-22T00:21:53;7.07;;;6.67;;
1460;SDS011;724;49.910;12.530;2023-06-22T00:24:20;6.90;;;6.50;;
1460;SDS011;724;49.910;12.530;2023-06-22T00:26:47;6.67;;;6.27;;
1460;SDS011;724;49.910;12.530;2023-06-22T00:29:14;5.50;;;5.20;;
1460;SDS011;724;49.910;12.530;2023-06-22T00:31:42;6.33;;;5.97;;
1460;SDS011;724;49.910;12.530;2023-06-22T00:34:09;6.03;;;5.73;;
1460;SDS011;724;49.910;12.530;2023-06-22T00:36:36;6.10;;;5.80;;
1460;SDS011;724;49.910;12.530;2023-06-22T00:39:10;5.80;;;5.50;;
1460;SDS011;724;49.910;12.530;2023-06-22T00:41:37;5.60;;;5.30;;
1460;SDS011;724;49.910;12.530;2023-06-22T00:44:04;5.30;;;5.00;;
1460;SDS011;724;49.910;12.530;2023-06-22T00:46:31;5.40;;;5.10;;
1460;SDS011;724;49.910;12.530;2023-06-22T00:49:00;5.20;;;4.90;;
1460;SDS011;724;49.910;12.530;2023-06-22T00:51:28;4.87;;;4.57;;
1460;SDS011;724;49.910;12.530;2023-06-22T00:53:55;5.00;;;4.70;;
1460;SDS011;724;49.910;12.530;2023-06-22T00:56:23;4.87;;;4.57;;
1460;SDS011;724;49.910;12.530;2023-06-22T00:58:51;4.97;;;4.67;;
1460;SDS011;724;49.910;12.530;2023-06-22T01:01:19;4.73;;;4.43;;
1460;SDS011;724;49.910;12.530;2023-06-22T01:03:48;3.80;;;3.60;;
1460;SDS011;724;49.910;12.530;2023-06-22T01:06:18;3.30;;;3.10;;
1460;SDS011;724;49.910;12.530;2023-06-22T01:08:54;3.43;;;3.23;;
1460;SDS011;724;49.910;12.530;2023-06-22T01:11:28;3.57;;;3.37;;
1460;SDS011;724;49.910;12.530;2023-06-22T01:14:04;3.60;;;3.40;;
1460;SDS011;724;49.910;12.530;2023-06-22T01:16:37;3.80;;;3.60;;
1460;SDS011;724;49.910;12.530;2023-06-22T01:19:09;3.63;;;3.43;;
1460;SDS011;724;49.910;12.530;2023-06-22T01:21:51;3.80;;;3.60;;
1460;SDS011;724;49.910;12.530;2023-06-22T01:24:22;3.80;;;3.60;;
1460;SDS011;724;49.910;12.530;2023-06-22T01:26:54;3.60;;;3.40;;
1460;SDS011;724;49.910;12.530;2023-06-22T01:29:32;4.10;;;3.90;;
1460;SDS011;724;49.910;12.530;2023-06-22T01:32:01;4.00;;;3.80;;
1460;SDS011;724;49.910;12.530;2023-06-22T01:34:30;4.50;;;4.20;;
1460;SDS011;724;49.910;12.530;2023-06-22T01:36:57;5.17;;;4.87;;
1460;SDS011;724;49.910;12.530;2023-06-22T01:39:25;4.70;;;4.40;;
1460;SDS011;724;49.910;12.530;2023-06-22T01:41:53;5.30;;;5.00;;
1460;SDS011;724;49.910;12.530;2023-06-22T01:44:20;5.60;;;5.30;;
1460;SDS011;724;49.910;12.530;2023-06-22T01:46:50;5.40;;;5.10;;
1460;SDS011;724;49.910;12.530;2023-06-22T01:49:18;5.10;;;4.80;;
1460;SDS011;724;49.910;12.530;2023-06-22T01:51:45;3.80;;;3.60;;
1460;SDS011;724;49.910;12.530;2023-06-22T01:54:12;3.40;;;3.20;;
1460;SDS011;724;49.910;12.530;2023-06-22T01:56:38;3.20;;;3.00;;
1460;SDS011;724;49.910;12.530;2023-06-22T01:59:07;3.80;;;3.60;;
1460;SDS011;724;49.910;12.530;2023-06-22T02:01:40;3.67;;;3.47;;
1460;SDS011;724;49.910;12.530;2023-06-22T02:04:12;3.70;;;3.50;;
1460;SDS011;724;49.910;12.530;2023-06-22T02:06:45;3.37;;;3.17;;
1460;SDS011;724;49.910;12.530;2023-06-22T02:09:16;3.20;;;3.00;;
1460;SDS011;724;49.910;12.530;2023-06-22T02:11:45;3.30;;;3.10;;
1460;SDS011;724;49.910;12.530;2023-06-22T02:14:14;3.50;;;3.30;;
1460;SDS011;724;49.910;12.530;2023-06-22T02:16:41;3.50;;;3.30;;
1460;SDS011;724;49.910;12.530;2023-06-22T02:19:08;3.20;;;3.00;;
1460;SDS011;724;49.910;12.530;2023-06-22T02:21:43;3.10;;;2.90;;
1460;SDS011;724;49.910;12.530;2023-06-22T02:24:10;3.30;;;3.10;;
1460;SDS011;724;49.910;12.530;2023-06-22T02:26:37;3.30;;;3.10;;
1460;SDS011;724;49.910;12.530;2023-06-22T02:29:04;3.87;;;3.67;;
1460;SDS011;724;49.910;12.530;2023-06-22T02:31:31;3.77;;;3.57;;
1460;SDS011;724;49.910;12.530;2023-06-22T02:33:58;5.40;;;5.10;;
1460;SDS011;724;49.910;12.530;2023-06-22T02:36:26;5.90;;;5.60;;
1460;SDS011;724;49.910;12.530;2023-06-22T02:38:55;5.20;;;4.90;;
1460;SDS011;724;49.910;12.530;2023-06-22T02:41:25;5.60;;;5.30;;
1460;SDS011;724;49.910;12.530;2023-06-22T02:43:52;5.73;;;5.43;;
1460;SDS011;724;49.910;12.530;2023-06-22T02:46:19;6.60;;;6.20;;
1460;SDS011;724;49.910;12.530;2023-06-22T02:48:46;6.80;;;6.40;;
1460;SDS011;724;49.910;12.530;2023-06-22T02:51:13;5.73;;;5.43;;
1460;SDS011;724;49.910;12.530;2023-06-22T02:53:41;5.90;;;5.60;;
1460;SDS011;724;49.910;12.530;2023-06-22T02:56:09;5.03;;;4.73;;
1460;SDS011;724;49.910;12.530;2023-06-22T02:58:37;3.40;;;3.20;;
1460;SDS011;724;49.910;12.530;2023-06-22T03:01:04;2.40;;;2.20;;
1460;SDS011;724;49.910;12.530;2023-06-22T03:03:31;1.90;;;1.80;;
1460;SDS011;724;49.910;12.530;2023-06-22T03:05:58;1.60;;;1.50;;
1460;SDS011;724;49.910;12.530;2023-06-22T03:08:25;1.80;;;1.70;;
1460;SDS011;724;49.910;12.530;2023-06-22T03:10:54;1.60;;;1.50;;
1460;SDS011;724;49.910;12.530;2023-06-22T03:13:20;2.00;;;1.90;;
1460;SDS011;724;49.910;12.530;2023-06-22T03:15:47;2.20;;;2.00;;
1460;SDS011;724;49.910;12.530;2023-06-22T03:18:14;2.00;;;1.90;;
1460;SDS011;724;49.910;12.530;2023-06-22T03:20:41;2.00;;;1.90;;
1460;SDS011;724;49.910;12.530;2023-06-22T03:23:08;2.30;;;2.10;;
1460;SDS011;724;49.910;12.530;2023-06-22T03:25:35;2.53;;;2.33;;
1460;SDS011;724;49.910;12.530;2023-06-22T03:28:03;2.30;;;2.10;;
1460;SDS011;724;49.910;12.530;2023-06-22T03:30:30;2.70;;;2.50;;
1460;SDS011;724;49.910;12.530;2023-06-22T03:32:57;2.80;;;2.60;;
1460;SDS011;724;49.910;12.530;2023-06-22T03:35:23;2.90;;;2.70;;
1460;SDS011;724;49.910;12.530;2023-06-22T03:37:50;2.67;;;2.47;;
1460;SDS011;724;49.910;12.530;2023-06-22T03:40:17;2.70;;;2.50;;
1460;SDS011;724;49.910;12.530;2023-06-22T03:42:43;3.10;;;2.90;;
1460;SDS011;724;49.910;12.530;2023-06-22T03:45:11;3.13;;;2.93;;
1460;SDS011;724;49.910;12.530;2023-06-22T03:47:38;3.80;;;3.60;;
1460;SDS011;724;49.910;12.530;2023-06-22T03:50:05;3.90;;;3.70;;
1460;SDS011;724;49.910;12.530;2023-06-22T03:52:32;4.37;;;4.07;;
1460;SDS011;724;49.910;12.530;2023-06-22T03:54:59;4.60;;;4.30;;
1460;SDS011;724;49.910;12.530;2023-06-22T03:57:26;4.60;;;4.30;;
1460;SDS011;724;49.910;12.530;2023-06-22T03:59:53;5.00;;;4.70;;
1460;SDS011;724;49.910;12.530;2023-06-22T04:02:23;5.30;;;5.00;;
1460;SDS011;724;49.910;12.530;2023-06-22T04:04:50;5.10;;;4.80;;
1460;SDS011;724;49.910;12.530;2023-06-22T04:07:17;5.70;;;5.40;;
1460;SDS011;724;49.910;12.530;2023-06-22T04:09:44;6.13;;;5.83;;
1460;SDS011;724;49.910;12.530;2023-06-22T04:12:11;6.50;;;6.10;;
1460;SDS011;724;49.910;12.530;2023-06-22T04:14:37;6.57;;;6.17;;
1460;SDS011;724;49.910;12.530;2023-06-22T04:17:04;6.67;;;6.27;;
1460;SDS011;724;49.910;12.530;2023-06-22T04:19:32;6.90;;;6.50;;
1460;SDS011;724;49.910;12.530;2023-06-22T04:21:59;6.50;;;6.10;;
1460;SDS011;724;49.910;12.530;2023-06-22T04:24:26;6.57;;;6.17;;
1460;SDS011;724;49.910;12.530;2023-06-22T04:26:53;6.40;;;6.00;;
1460;SDS011;724;49.910;12.530;2023-06-22T04:29:20;6.40;;;6.00;;
1460;SDS011;724;49.910;12.530;2023-06-22T04:31:53;7.30;;;6.90;;
1460;SDS011;724;49.910;12.530;2023-06-22T04:34:22;7.00;;;6.60;;
1460;SDS011;724;49.910;12.530;2023-06-22T04:36:52;7.20;;;6.80;;
1460;SDS011;724;49.910;12.530;2023-06-22T04:39:19;7.20;;;6.80;;
1460;SDS011;724;49.910;12.530;2023-06-22T04:41:47;7.20;;;6.80;;
1460;SDS011;724;49.910;12.530;2023-06-22T04:44:14;7.53;;;7.13;;
1460;SDS011;724;49.910;12.530;2023-06-22T04:46:48;7.30;;;6.90;;
1460;SDS011;724;49.910;12.530;2023-06-22T04:49:19;7.50;;;7.10;;
1460;SDS011;724;49.910;12.530;2023-06-22T04:51:47;7.40;;;7.00;;
1460;SDS011;724;49.910;12.530;2023-06-22T04:54:15;7.20;;;6.80;;
1460;SDS011;724;49.910;12.530;2023-06-22T04:56:42;7.50;;;7.10;;
1460;SDS011;724;49.910;12.530;2023-06-22T04:59:11;7.60;;;7.20;;
1460;SDS011;724;49.910;12.530;2023-06-22T05:01:39;7.60;;;7.20;;
1460;SDS011;724;49.910;12.530;2023-06-22T05:04:05;7.80;;;7.40;;
1460;SDS011;724;49.910;12.530;2023-06-22T05:06:32;8.20;;;7.80;;
1460;SDS011;724;49.910;12.530;2023-06-22T05:08:59;8.10;;;7.70;;
1460;SDS011;724;49.910;12.530;2023-06-22T05:11:27;8.50;;;8.00;;
1460;SDS011;724;49.910;12.530;2023-06-22T05:13:56;8.10;;;7.70;;
1460;SDS011;724;49.910;12.530;2023-06-22T05:16:24;8.03;;;7.63;;
1460;SDS011;724;49.910;12.530;2023-06-22T05:18:51;8.10;;;7.70;;
1460;SDS011;724;49.910;12.530;2023-06-22T05:21:21;7.77;;;7.37;;
1460;SDS011;724;49.910;12.530;2023-06-22T05:23:49;7.90;;;7.50;;
1460;SDS011;724;49.910;12.530;2023-06-22T05:26:16;7.83;;;7.43;;
1460;SDS011;724;49.910;12.530;2023-06-22T05:28:44;8.20;;;7.80;;
1460;SDS011;724;49.910;12.530;2023-06-22T05:31:12;8.53;;;8.03;;
1460;SDS011;724;49.910;12.530;2023-06-22T05:33:39;8.00;;;7.60;;
1460;SDS011;724;49.910;12.530;2023-06-22T05:36:05;8.73;;;8.23;;
1460;SDS011;724;49.910;12.530;2023-06-22T05:38:32;8.20;;;7.80;;
1460;SDS011;724;49.910;12.530;2023-06-22T05:40:59;8.50;;;8.00;;
1460;SDS011;724;49.910;12.530;2023-06-22T05:43:26;9.60;;;9.10;;
1460;SDS011;724;49.910;12.530;2023-06-22T05:45:54;9.27;;;8.77;;
1460;SDS011;724;49.910;12.530;2023-06-22T05:48:21;9.10;;;8.60;;
1460;SDS011;724;49.910;12.530;2023-06-22T05:50:48;9.30;;;8.80;;
1460;SDS011;724;49.910;12.530;2023-06-22T05:53:15;9.53;;;9.03;;
1460;SDS011;724;49.910;12.530;2023-06-22T05:55:41;9.43;;;8.93;;
1460;SDS011;724;49.910;12.530;2023-06-22T05:58:08;9.50;;;9.00;;
1460;SDS011;724;49.910;12.530;2023-06-22T06:00:35;9.50;;;9.00;;
1460;SDS011;724;49.910;12.530;2023-06-22T06:03:03;10.10;;;9.60;;
1460;SDS011;724;49.910;12.530;2023-06-22T06:05:30;10.53;;;9.97;;
1460;SDS011;724;49.910;12.530;2023-06-22T06:07:57;10.67;;;10.07;;
1460;SDS011;724;49.910;12.530;2023-06-22T06:10:24;9.97;;;9.47;;
1460;SDS011;724;49.910;12.530;2023-06-22T06:12:51;10.27;;;9.77;;
1460;SDS011;724;49.910;12.530;2023-06-22T06:15:18;10.00;;;9.50;;
1460;SDS011;724;49.910;12.530;2023-06-22T06:17:45;9.50;;;9.00;;
1460;SDS011;724;49.910;12.530;2023-06-22T06:20:14;10.20;;;9.70;;
1460;SDS011;724;49.910;12.530;2023-06-22T06:22:41;9.83;;;9.33;;
1460;SDS011;724;49.910;12.530;2023-06-22T06:25:08;10.97;;;10.37;;
1460;SDS011;724;49.910;12.530;2023-06-22T06:27:40;10.37;;;9.87;;
1460;SDS011;724;49.910;12.530;2023-06-22T06:30:08;10.53;;;9.97;;
1460;SDS011;724;49.910;12.530;2023-06-22T06:32:35;10.27;;;9.77;;
1460;SDS011;724;49.910;12.530;2023-06-22T06:35:03;10.87;;;10.27;;
1460;SDS011;724;49.910;12.530;2023-06-22T06:37:32;10.70;;;10.10;;
1460;SDS011;724;49.910;12.530;2023-06-22T06:42:32;10.87;;;10.27;;
1460;SDS011;724;49.910;12.530;2023-06-22T06:45:03;11.07;;;10.47;;
1460;SDS011;724;49.910;12.530;2023-06-22T06:47:30;11.00;;;10.40;;
1460;SDS011;724;49.910;12.530;2023-06-22T06:49:57;11.10;;;10.50;;
1460;SDS011;724;49.910;12.530;2023-06-22T06:52:24;11.30;;;10.70;;
1460;SDS011;724;49.910;12.530;2023-06-22T06:54:52;11.27;;;10.67;;
1460;SDS011;724;49.910;12.530;2023-06-22T06:57:19;11.13;;;10.53;;
1460;SDS011;724;49.910;12.530;2023-06-22T06:59:47;11.37;;;10.77;;
1460;SDS011;724;49.910;12.530;2023-06-22T07:02:14;11.53;;;10.93;;
1460;SDS011;724;49.910;12.530;2023-06-22T07:04:41;12.00;;;11.40;;
1460;SDS011;724;49.910;12.530;2023-06-22T07:07:07;12.10;;;11.50;;
1460;SDS011;724;49.910;12.530;2023-06-22T07:09:34;12.10;;;11.50;;
1460;SDS011;724;49.910;12.530;2023-06-22T07:12:03;11.90;;;11.30;;
1460;SDS011;724;49.910;12.530;2023-06-22T07:14:30;11.20;;;10.60;;
1460;SDS011;724;49.910;12.530;2023-06-22T07:16:57;11.60;;;11.00;;
1460;SDS011;724;49.910;12.530;2023-06-22T07:19:24;11.40;;;10.80;;
1460;SDS011;724;49.910;12.530;2023-06-22T07:21:51;11.90;;;11.30;;
1460;SDS011;724;49.910;12.530;2023-06-22T07:24:18;11.50;;;10.90;;
1460;SDS011;724;49.910;12.530;2023-06-22T07:26:46;11.90;;;11.30;;
1460;SDS011;724;49.910;12.530;2023-06-22T07:29:14;12.37;;;11.77;;
1460;SDS011;724;49.910;12.530;2023-06-22T07:31:41;12.30;;;11.70;;
1460;SDS011;724;49.910;12.530;2023-06-22T07:34:08;12.77;;;12.07;;
1460;SDS011;724;49.910;12.530;2023-06-22T07:36:34;12.20;;;11.60;;
1460;SDS011;724;49.910;12.530;2023-06-22T07:39:01;12.57;;;11.93;;
1460;SDS011;724;49.910;12.530;2023-06-22T07:41:29;12.30;;;11.70;;
1460;SDS011;724;49.910;12.530;2023-06-22T07:43:55;12.23;;;11.63;;
1460;SDS011;724;49.910;12.530;2023-06-22T07:46:24;12.10;;;11.50;;
1460;SDS011;724;49.910;12.530;2023-06-22T07:48:50;11.97;;;11.37;;
1460;SDS011;724;49.910;12.530;2023-06-22T07:51:17;12.10;;;11.50;;
1460;SDS011;724;49.910;12.530;2023-06-22T07:53:44;12.57;;;11.93;;
1460;SDS011;724;49.910;12.530;2023-06-22T07:56:11;12.37;;;11.77;;
1460;SDS011;724;49.910;12.530;2023-06-22T07:58:38;12.30;;;11.70;;
1460;SDS011;724;49.910;12.530;2023-06-22T08:01:05;12.87;;;12.17;;
1460;SDS011;724;49.910;12.530;2023-06-22T08:03:33;12.40;;;11.80;;
1460;SDS011;724;49.910;12.530;2023-06-22T08:06:00;12.80;;;12.10;;
1460;SDS011;724;49.910;12.530;2023-06-22T08:08:27;12.30;;;11.70;;
1460;SDS011;724;49.910;12.530;2023-06-22T08:10:54;12.17;;;11.57;;
1460;SDS011;724;49.910;12.530;2023-06-22T08:13:20;12.00;;;11.40;;
1460;SDS011;724;49.910;12.530;2023-06-22T08:15:47;12.40;;;11.80;;
1460;SDS011;724;49.910;12.530;2023-06-22T08:18:14;11.90;;;11.30;;
1460;SDS011;724;49.910;12.530;2023-06-22T08:20:42;12.17;;;11.57;;
1460;SDS011;724;49.910;12.530;2023-06-22T08:23:09;11.87;;;11.27;;
1460;SDS011;724;49.910;12.530;2023-06-22T08:25:36;12.20;;;11.60;;
1460;SDS011;724;49.910;12.530;2023-06-22T08:28:03;11.90;;;11.30;;
1460;SDS011;724;49.910;12.530;2023-06-22T08:30:30;12.13;;;11.53;;
1460;SDS011;724;49.910;12.530;2023-06-22T08:32:57;12.50;;;11.90;;
1460;SDS011;724;49.910;12.530;2023-06-22T08:35:24;12.40;;;11.80;;
1460;SDS011;724;49.910;12.530;2023-06-22T08:37:52;12.40;;;11.80;;
1460;SDS011;724;49.910;12.530;2023-06-22T08:40:22;12.70;;;12.00;;
1460;SDS011;724;49.910;12.530;2023-06-22T08:42:49;12.80;;;12.10;;
1460;SDS011;724;49.910;12.530;2023-06-22T08:45:16;12.07;;;11.47;;
1460;SDS011;724;49.910;12.530;2023-06-22T08:47:42;12.10;;;11.50;;
1460;SDS011;724;49.910;12.530;2023-06-22T08:50:10;12.13;;;11.53;;
1460;SDS011;724;49.910;12.530;2023-06-22T08:52:38;12.10;;;11.50;;
1460;SDS011;724;49.910;12.530;2023-06-22T08:55:09;12.23;;;11.63;;
1460;SDS011;724;49.910;12.530;2023-06-22T08:57:36;11.90;;;11.30;;
1460;SDS011;724;49.910;12.530;2023-06-22T09:00:04;12.03;;;11.43;;
1460;SDS011;724;49.910;12.530;2023-06-22T09:02:40;12.30;;;11.70;;
1460;SDS011;724;49.910;12.530;2023-06-22T09:05:07;12.20;;;11.60;;
1460;SDS011;724;49.910;12.530;2023-06-22T09:07:34;12.30;;;11.70;;
1460;SDS011;724;49.910;12.530;2023-06-22T09:10:01;12.00;;;11.40;;
1460;SDS011;724;49.910;12.530;2023-06-22T09:12:31;12.23;;;11.63;;
1460;SDS011;724;49.910;12.530;2023-06-22T09:14:58;11.93;;;11.33;;
1460;SDS011;724;49.910;12.530;2023-06-22T09:17:26;12.00;;;11.40;;
1460;SDS011;724;49.910;12.530;2023-06-22T09:19:52;12.30;;;11.70;;
1460;SDS011;724;49.910;12.530;2023-06-22T09:22:19;12.17;;;11.57;;
1460;SDS011;724;49.910;12.530;2023-06-22T09:24:46;12.80;;;12.10;;
1460;SDS011;724;49.910;12.530;2023-06-22T09:27:13;12.50;;;11.90;;
1460;SDS011;724;49.910;12.530;2023-06-22T09:29:41;12.63;;;11.97;;
1460;SDS011;724;49.910;12.530;2023-06-22T09:32:08;12.30;;;11.70;;
1460;SDS011;724;49.910;12.530;2023-06-22T09:34:34;12.43;;;11.83;;
1460;SDS011;724;49.910;12.530;2023-06-22T09:37:01;12.00;;;11.40;;
1460;SDS011;724;49.910;12.530;2023-06-22T09:39:28;12.23;;;11.63;;
1460;SDS011;724;49.910;12.530;2023-06-22T09:41:55;12.03;;;11.43;;
1460;SDS011;724;49.910;12.530;2023-06-22T09:44:21;12.00;;;11.40;;
1460;SDS011;724;49.910;12.530;2023-06-22T09:46:49;12.30;;;11.70;;
1460;SDS011;724;49.910;12.530;2023-06-22T09:49:16;12.30;;;11.70;;
1460;SDS011;724;49.910;12.530;2023-06-22T09:51:43;12.40;;;11.80;;
1460;SDS011;724;49.910;12.530;2023-06-22T09:54:10;12.20;;;11.60;;
1460;SDS011;724;49.910;12.530;2023-06-22T09:56:36;12.20;;;11.60;;
1460;SDS011;724;49.910;12.530;2023-06-22T09:59:03;12.50;;;11.90;;
1460;SDS011;724;49.910;12.530;2023-06-22T10:01:30;12.83;;;12.13;;
1460;SDS011;724;49.910;12.530;2023-06-22T10:03:58;12.87;;;12.17;;
1460;SDS011;724;49.910;12.530;2023-06-22T10:06:25;13.10;;;12.40;;
1460;SDS011;724;49.910;12.530;2023-06-22T10:08:51;12.07;;;11.47;;
1460;SDS011;724;49.910;12.530;2023-06-22T10:11:18;12.03;;;11.43;;
1460;SDS011;724;49.910;12.530;2023-06-22T10:13:45;11.90;;;11.30;;
1460;SDS011;724;49.910;12.530;2023-06-22T10:16:12;12.13;;;11.53;;
1460;SDS011;724;49.910;12.530;2023-06-22T10:18:38;12.80;;;12.10;;
1460;SDS011;724;49.910;12.530;2023-06-22T10:21:06;12.50;;;11.90;;
1460;SDS011;724;49.910;12.530;2023-06-22T10:23:33;12.20;;;11.60;;
1460;SDS011;724;49.910;12.530;2023-06-22T10:26:00;12.00;;;11.40;;
1460;SDS011;724;49.910;12.530;2023-06-22T10:28:26;12.77;;;12.07;;
1460;SDS011;724;49.910;12.530;2023-06-22T10:30:53;12.70;;;12.00;;
1460;SDS011;724;49.910;12.530;2023-06-22T10:33:20;12.50;;;11.90;;
1460;SDS011;724;49.910;12.530;2023-06-22T10:35:47;12.00;;;11.40;;
1460;SDS011;724;49.910;12.530;2023-06-22T10:38:16;12.27;;;11.67;;
1460;SDS011;724;49.910;12.530;2023-06-22T10:40:43;12.20;;;11.60;;
1460;SDS011;724;49.910;12.530;2023-06-22T10:43:10;12.20;;;11.60;;
1460;SDS011;724;49.910;12.530;2023-06-22T10:45:37;12.10;;;11.50;;
1460;SDS011;724;49.910;12.530;2023-06-22T10:48:04;12.27;;;11.67;;
1460;SDS011;724;49.910;12.530;2023-06-22T10:50:31;11.97;;;11.37;;
1460;SDS011;724;49.910;12.530;2023-06-22T10:52:57;12.30;;;11.70;;
1460;SDS011;724;49.910;12.530;2023-06-22T10:55:26;12.57;;;11.93;;
1460;SDS011;724;49.910;12.530;2023-06-22T10:57:52;13.10;;;12.40;;
1460;SDS011;724;49.910;12.530;2023-06-22T11:00:19;12.50;;;11.90;;
1460;SDS011;724;49.910;12.530;2023-06-22T11:02:46;13.50;;;12.80;;
1460;SDS011;724;49.910;12.530;2023-06-22T11:05:17;12.50;;;11.90;;
1460;SDS011;724;49.910;12.530;2023-06-22T11:07:46;13.00;;;12.30;;
1460;SDS011;724;49.910;12.530;2023-06-22T11:10:17;12.80;;;12.10;;
1460;SDS011;724;49.910;12.530;2023-06-22T11:12:45;12.83;;;12.13;;
1460;SDS011;724;49.910;12.530;2023-06-22T11:15:12;12.33;;;11.73;;
1460;SDS011;724;49.910;12.530;2023-06-22T11:17:38;12.90;;;12.20;;
1460;SDS011;724;49.910;12.530;2023-06-22T11:20:07;12.80;;;12.10;;
1460;SDS011;724;49.910;12.530;2023-06-22T11:22:35;12.70;;;12.00;;
1460;SDS011;724;49.910;12.530;2023-06-22T11:25:02;12.20;;;11.60;;
1460;SDS011;724;49.910;12.530;2023-06-22T11:27:30;12.40;;;11.80;;
1460;SDS011;724;49.910;12.530;2023-06-22T11:29:58;12.40;;;11.80;;
1460;SDS011;724;49.910;12.530;2023-06-22T11:32:24;12.80;;;12.10;;
1460;SDS011;724;49.910;12.530;2023-06-22T11:34:52;12.20;;;11.60;;
1460;SDS011;724;49.910;12.530;2023-06-22T11:37:19;12.50;;;11.90;;
1460;SDS011;724;49.910;12.530;2023-06-22T11:39:45;12.77;;;12.07;;
1460;SDS011;724;49.910;12.530;2023-06-22T11:42:12;11.90;;;11.30;;
1460;SDS011;724;49.910;12.530;2023-06-22T11:44:39;11.43;;;10.83;;
1460;SDS011;724;49.910;12.530;2023-06-22T11:47:07;11.57;;;10.97;;
1460;SDS011;724;49.910;12.530;2023-06-22T11:49:34;12.03;;;11.43;;
1460;SDS011;724;49.910;12.530;2023-06-22T11:52:00;12.20;;;11.60;;
1460;SDS011;724;49.910;12.530;2023-06-22T11:54:27;12.03;;;11.43;;
1460;SDS011;724;49.910;12.530;2023-06-22T11:56:54;12.10;;;11.50;;
1460;SDS011;724;49.910;12.530;2023-06-22T11:59:21;12.57;;;11.93;;
1460;SDS011;724;49.910;12.530;2023-06-22T12:01:47;12.40;;;11.80;;
1460;SDS011;724;49.910;12.530;2023-06-22T12:04:17;12.43;;;11.83;;
1460;SDS011;724;49.910;12.530;2023-06-22T12:06:44;12.20;;;11.60;;
1460;SDS011;724;49.910;12.530;2023-06-22T12:09:10;12.73;;;12.03;;
1460;SDS011;724;49.910;12.530;2023-06-22T12:11:38;12.50;;;11.90;;
1460;SDS011;724;49.910;12.530;2023-06-22T12:14:05;12.20;;;11.60;;
1460;SDS011;724;49.910;12.530;2023-06-22T12:16:32;12.07;;;11.47;;
1460;SDS011;724;49.910;12.530;2023-06-22T12:18:58;12.70;;;12.00;;
1460;SDS011;724;49.910;12.530;2023-06-22T12:21:26;12.20;;;11.60;;
1460;SDS011;724;49.910;12.530;2023-06-22T12:23:54;12.30;;;11.70;;
1460;SDS011;724;49.910;12.530;2023-06-22T12:26:21;12.73;;;12.03;;
1460;SDS011;724;49.910;12.530;2023-06-22T12:28:47;12.80;;;12.10;;
1460;SDS011;724;49.910;12.530;2023-06-22T12:31:14;12.63;;;11.97;;
1460;SDS011;724;49.910;12.530;2023-06-22T12:33:41;12.27;;;11.67;;
1460;SDS011;724;49.910;12.530;2023-06-22T12:36:08;12.17;;;11.57;;
1460;SDS011;724;49.910;12.530;2023-06-22T12:38:36;12.20;;;11.60;;
1460;SDS011;724;49.910;12.530;2023-06-22T12:41:03;12.40;;;11.80;;
1460;SDS011;724;49.910;12.530;2023-06-22T12:43:30;12.97;;;12.27;;
1460;SDS011;724;49.910;12.530;2023-06-22T12:45:56;12.33;;;11.73;;
1460;SDS011;724;49.910;12.530;2023-06-22T12:48:25;13.00;;;12.30;;
1460;SDS011;724;49.910;12.530;2023-06-22T12:50:53;12.93;;;12.23;;
1460;SDS011;724;49.910;12.530;2023-06-22T12:53:20;12.97;;;12.27;;
1460;SDS011;724;49.910;12.530;2023-06-22T12:55:49;12.90;;;12.20;;
1460;SDS011;724;49.910;12.530;2023-06-22T12:58:15;13.03;;;12.33;;
1460;SDS011;724;49.910;12.530;2023-06-22T13:00:42;13.07;;;12.37;;
1460;SDS011;724;49.910;12.530;2023-06-22T13:03:09;13.23;;;12.53;;
1460;SDS011;724;49.910;12.530;2023-06-22T13:05:36;13.20;;;12.50;;
1460;SDS011;724;49.910;12.530;2023-06-22T13:08:03;13.13;;;12.43;;
1460;SDS011;724;49.910;12.530;2023-06-22T13:10:30;12.70;;;12.00;;
1460;SDS011;724;49.910;12.530;2023-06-22T13:12:58;12.90;;;12.20;;
1460;SDS011;724;49.910;12.530;2023-06-22T13:15:26;12.93;;;12.23;;
1460;SDS011;724;49.910;12.530;2023-06-22T13:17:53;12.77;;;12.07;;
1460;SDS011;724;49.910;12.530;2023-06-22T13:20:20;13.10;;;12.40;;
1460;SDS011;724;49.910;12.530;2023-06-22T13:22:47;12.80;;;12.10;;
1460;SDS011;724;49.910;12.530;2023-06-22T13:25:14;13.07;;;12.37;;
1460;SDS011;724;49.910;12.530;2023-06-22T13:27:44;12.70;;;12.00;;
1460;SDS011;724;49.910;12.530;2023-06-22T13:30:12;13.20;;;12.50;;
1460;SDS011;724;49.910;12.530;2023-06-22T13:32:39;12.87;;;12.17;;
1460;SDS011;724;49.910;12.530;2023-06-22T13:35:07;13.07;;;12.37;;
1460;SDS011;724;49.910;12.530;2023-06-22T13:37:34;12.90;;;12.20;;
1460;SDS011;724;49.910;12.530;2023-06-22T13:40:01;13.10;;;12.40;;
1460;SDS011;724;49.910;12.530;2023-06-22T13:42:30;12.80;;;12.10;;
1460;SDS011;724;49.910;12.530;2023-06-22T13:44:57;13.50;;;12.80;;
1460;SDS011;724;49.910;12.530;2023-06-22T13:47:25;13.40;;;12.70;;
1460;SDS011;724;49.910;12.530;2023-06-22T13:49:52;13.20;;;12.50;;
1460;SDS011;724;49.910;12.530;2023-06-22T13:52:18;13.17;;;12.47;;
1460;SDS011;724;49.910;12.530;2023-06-22T13:54:45;13.50;;;12.80;;
1460;SDS011;724;49.910;12.530;2023-06-22T13:57:12;13.40;;;12.70;;
1460;SDS011;724;49.910;12.530;2023-06-22T13:59:38;12.97;;;12.27;;
1460;SDS011;724;49.910;12.530;2023-06-22T14:02:05;13.43;;;12.73;;
1460;SDS011;724;49.910;12.530;2023-06-22T14:04:34;13.20;;;12.50;;
1460;SDS011;724;49.910;12.530;2023-06-22T14:07:00;13.20;;;12.50;;
1460;SDS011;724;49.910;12.530;2023-06-22T14:09:27;13.50;;;12.80;;
1460;SDS011;724;49.910;12.530;2023-06-22T14:11:54;13.63;;;12.93;;
1460;SDS011;724;49.910;12.530;2023-06-22T14:14:21;13.70;;;13.00;;
1460;SDS011;724;49.910;12.530;2023-06-22T14:16:48;14.00;;;13.30;;
1460;SDS011;724;49.910;12.530;2023-06-22T14:19:16;14.33;;;13.63;;
1460;SDS011;724;49.910;12.530;2023-06-22T14:21:45;13.60;;;12.90;;
1460;SDS011;724;49.910;12.530;2023-06-22T14:24:12;13.40;;;12.70;;
1460;SDS011;724;49.910;12.530;2023-06-22T14:26:39;13.57;;;12.87;;
1460;SDS011;724;49.910;12.530;2023-06-22T14:29:06;13.00;;;12.30;;
1460;SDS011;724;49.910;12.530;2023-06-22T14:31:32;13.17;;;12.47;;
1460;SDS011;724;49.910;12.530;2023-06-22T14:33:59;13.10;;;12.40;;
1460;SDS011;724;49.910;12.530;2023-06-22T14:36:27;13.50;;;12.80;;
1460;SDS011;724;49.910;12.530;2023-06-22T14:38:55;13.43;;;12.73;;
1460;SDS011;724;49.910;12.530;2023-06-22T14:41:22;13.40;;;12.70;;
1460;SDS011;724;49.910;12.530;2023-06-22T14:43:49;13.13;;;12.43;;
1460;SDS011;724;49.910;12.530;2023-06-22T14:46:16;12.90;;;12.20;;
1460;SDS011;724;49.910;12.530;2023-06-22T14:48:45;12.70;;;12.00;;
1460;SDS011;724;49.910;12.530;2023-06-22T14:51:11;13.20;;;12.50;;
1460;SDS011;724;49.910;12.530;2023-06-22T14:53:38;12.63;;;11.97;;
1460;SDS011;724;49.910;12.530;2023-06-22T14:56:07;13.27;;;12.57;;
1460;SDS011;724;49.910;12.530;2023-06-22T15:01:08;12.77;;;12.07;;
1460;SDS011;724;49.910;12.530;2023-06-22T15:03:35;12.40;;;11.80;;
1460;SDS011;724;49.910;12.530;2023-06-22T15:06:02;12.57;;;11.93;;
1460;SDS011;724;49.910;12.530;2023-06-22T15:08:29;12.97;;;12.27;;